Terminal Aerodrome Forecast
Issued by NWS

Current Version | Previous Version | Text Only | Print | Product List | Glossary On
Versions: 1 2 3 4 5 6 7 8 9 10 11 12 13 14 15 16 17 18 19 20 21 22 23 24 25 26 27
000
FTUS42 KCAE 272300
TAFOGB
TAF
KOGB 272326Z 2800/2824 30010KT P6SM SKC
     FM280900 32004KT P6SM SKC
     FM281400 01010KT P6SM SKC
     FM281800 VRB04KT P6SM SKC=

USA.gov is the U.S. government's official web portal to all federal, state and local government web resources and services.